sensor_id;sensor_type;location;lat;lon;timestamp;pressure;altitude;pressure_sealevel;temperature;humidity
56334;BME280;42240;53.626;55.886;2023-11-18T00:01:20;76855.41;;;-145.10;100.00
56334;BME280;42240;53.626;55.886;2023-11-18T00:03:12;76829.69;;;-145.10;100.00
56334;BME280;42240;53.626;55.886;2023-11-18T00:05:04;76839.56;;;-145.10;100.00
56334;BME280;42240;53.626;55.886;2023-11-18T00:06:55;76841.56;;;-145.10;100.00
56334;BME280;42240;53.626;55.886;2023-11-18T00:08:48;76813.88;;;-145.10;100.00
56334;BME280;42240;53.626;55.886;2023-11-18T00:10:41;76841.56;;;-145.10;100.00
56334;BME280;42240;53.626;55.886;2023-11-18T00:12:32;76809.91;;;-145.10;100.00
56334;BME280;42240;53.626;55.886;2023-11-18T00:14:26;76805.97;;;-145.10;100.00
56334;BME280;42240;53.626;55.886;2023-11-18T00:16:17;76811.88;;;-145.10;100.00
56334;BME280;42240;53.626;55.886;2023-11-18T00:18:09;76839.56;;;-145.10;100.00
56334;BME280;42240;53.626;55.886;2023-11-18T00:20:01;76845.50;;;-145.10;100.00
56334;BME280;42240;53.626;55.886;2023-11-18T00:22:00;76837.59;;;-145.10;100.00
56334;BME280;42240;53.626;55.886;2023-11-18T00:23:51;76837.59;;;-145.10;100.00
56334;BME280;42240;53.626;55.886;2023-11-18T00:25:43;76819.81;;;-145.10;100.00
56334;BME280;42240;53.626;55.886;2023-11-18T00:27:36;76815.84;;;-145.10;100.00
56334;BME280;42240;53.626;55.886;2023-11-18T00:29:27;76853.41;;;-145.10;100.00
56334;BME280;42240;53.626;55.886;2023-11-18T00:31:18;76833.66;;;-145.10;100.00
56334;BME280;42240;53.626;55.886;2023-11-18T00:33:11;76811.88;;;-145.10;100.00
56334;BME280;42240;53.626;55.886;2023-11-18T00:35:02;76841.56;;;-145.10;100.00
56334;BME280;42240;53.626;55.886;2023-11-18T00:36:55;76829.69;;;-145.10;100.00
56334;BME280;42240;53.626;55.886;2023-11-18T00:38:50;76857.38;;;-145.10;100.00
56334;BME280;42240;53.626;55.886;2023-11-18T00:40:41;76805.97;;;-145.10;100.00
56334;BME280;42240;53.626;55.886;2023-11-18T00:42:33;76861.34;;;-145.10;100.00
56334;BME280;42240;53.626;55.886;2023-11-18T00:44:24;76849.47;;;-145.10;100.00
56334;BME280;42240;53.626;55.886;2023-11-18T00:46:16;76841.56;;;-145.10;100.00
56334;BME280;42240;53.626;55.886;2023-11-18T00:48:09;76849.47;;;-145.10;100.00
56334;BME280;42240;53.626;55.886;2023-11-18T00:50:00;76839.56;;;-145.10;100.00
56334;BME280;42240;53.626;55.886;2023-11-18T00:51:55;76857.38;;;-145.10;100.00
56334;BME280;42240;53.626;55.886;2023-11-18T00:53:47;76821.78;;;-145.10;100.00
56334;BME280;42240;53.626;55.886;2023-11-18T00:55:37;76837.59;;;-145.10;100.00
56334;BME280;42240;53.626;55.886;2023-11-18T00:57:29;76829.69;;;-145.10;100.00
56334;BME280;42240;53.626;55.886;2023-11-18T00:59:22;76827.72;;;-145.10;100.00
56334;BME280;42240;53.626;55.886;2023-11-18T01:01:13;76803.97;;;-145.10;100.00
56334;BME280;42240;53.626;55.886;2023-11-18T01:03:09;76811.88;;;-145.10;100.00
56334;BME280;42240;53.626;55.886;2023-11-18T01:05:01;76823.75;;;-145.10;100.00
56334;BME280;42240;53.626;55.886;2023-11-18T01:06:52;76839.56;;;-145.10;100.00
56334;BME280;42240;53.626;55.886;2023-11-18T01:08:44;76837.59;;;-145.10;100.00
56334;BME280;42240;53.626;55.886;2023-11-18T01:10:36;76821.78;;;-145.10;100.00
56334;BME280;42240;53.626;55.886;2023-11-18T01:12:29;76825.72;;;-145.10;100.00
56334;BME280;42240;53.626;55.886;2023-11-18T01:14:20;76839.56;;;-145.10;100.00
56334;BME280;42240;53.626;55.886;2023-11-18T01:16:14;76851.44;;;-145.10;100.00
56334;BME280;42240;53.626;55.886;2023-11-18T01:18:06;76841.56;;;-145.10;100.00
56334;BME280;42240;53.626;55.886;2023-11-18T01:19:57;76837.59;;;-145.10;100.00
56334;BME280;42240;53.626;55.886;2023-11-18T01:21:49;76831.66;;;-145.10;100.00
56334;BME280;42240;53.626;55.886;2023-11-18T01:23:44;76833.66;;;-145.10;100.00
56334;BME280;42240;53.626;55.886;2023-11-18T01:25:36;76802.00;;;-145.10;100.00
56334;BME280;42240;53.626;55.886;2023-11-18T01:27:28;76833.66;;;-145.10;100.00
56334;BME280;42240;53.626;55.886;2023-11-18T01:29:19;76869.25;;;-145.10;100.00
56334;BME280;42240;53.626;55.886;2023-11-18T01:31:11;76865.28;;;-145.10;100.00
56334;BME280;42240;53.626;55.886;2023-11-18T01:33:04;76869.25;;;-145.10;100.00
56334;BME280;42240;53.626;55.886;2023-11-18T01:34:55;76869.25;;;-145.10;100.00
56334;BME280;42240;53.626;55.886;2023-11-18T01:36:49;76867.25;;;-145.10;100.00
56334;BME280;42240;53.626;55.886;2023-11-18T01:38:40;76865.28;;;-145.10;100.00
56334;BME280;42240;53.626;55.886;2023-11-18T01:40:33;76831.66;;;-145.10;100.00
56334;BME280;42240;53.626;55.886;2023-11-18T01:42:24;76837.59;;;-145.10;100.00
56334;BME280;42240;53.626;55.886;2023-11-18T01:44:16;76855.41;;;-145.10;100.00
56334;BME280;42240;53.626;55.886;2023-11-18T01:46:08;76831.66;;;-145.10;100.00
56334;BME280;42240;53.626;55.886;2023-11-18T01:48:01;76813.88;;;-145.10;100.00
56334;BME280;42240;53.626;55.886;2023-11-18T01:49:53;76821.78;;;-145.10;100.00
56334;BME280;42240;53.626;55.886;2023-11-18T01:51:45;76825.72;;;-145.10;100.00
56334;BME280;42240;53.626;55.886;2023-11-18T01:53:37;76849.47;;;-145.10;100.00
56334;BME280;42240;53.626;55.886;2023-11-18T01:55:31;76819.81;;;-145.10;100.00
56334;BME280;42240;53.626;55.886;2023-11-18T01:57:23;76869.25;;;-145.10;100.00
56334;BME280;42240;53.626;55.886;2023-11-18T01:59:15;76869.25;;;-145.10;100.00
56334;BME280;42240;53.626;55.886;2023-11-18T02:01:11;76841.56;;;-145.10;100.00
56334;BME280;42240;53.626;55.886;2023-11-18T02:03:02;76815.84;;;-145.10;100.00
56334;BME280;42240;53.626;55.886;2023-11-18T02:04:55;76833.66;;;-145.10;100.00
56334;BME280;42240;53.626;55.886;2023-11-18T02:06:48;76815.84;;;-145.10;100.00
56334;BME280;42240;53.626;55.886;2023-11-18T02:08:40;76827.72;;;-145.10;100.00
56334;BME280;42240;53.626;55.886;2023-11-18T02:10:33;76833.66;;;-145.10;100.00
56334;BME280;42240;53.626;55.886;2023-11-18T02:14:39;76851.44;;;-145.10;100.00
56334;BME280;42240;53.626;55.886;2023-11-18T02:16:31;76853.41;;;-145.10;100.00
56334;BME280;42240;53.626;55.886;2023-11-18T02:18:28;76857.38;;;-145.10;100.00
56334;BME280;42240;53.626;55.886;2023-11-18T02:20:22;76849.47;;;-145.10;100.00
56334;BME280;42240;53.626;55.886;2023-11-18T02:22:14;76845.50;;;-145.10;100.00
56334;BME280;42240;53.626;55.886;2023-11-18T02:24:06;76873.19;;;-145.10;100.00
56334;BME280;42240;53.626;55.886;2023-11-18T02:25:58;76837.59;;;-145.10;100.00
56334;BME280;42240;53.626;55.886;2023-11-18T02:27:53;76839.56;;;-145.10;100.00
56334;BME280;42240;53.626;55.886;2023-11-18T02:29:45;76821.78;;;-145.10;100.00
56334;BME280;42240;53.626;55.886;2023-11-18T02:31:38;76841.56;;;-145.10;100.00
56334;BME280;42240;53.626;55.886;2023-11-18T02:33:34;76825.72;;;-145.10;100.00
56334;BME280;42240;53.626;55.886;2023-11-18T02:35:53;76803.97;;;-145.10;100.00
56334;BME280;42240;53.626;55.886;2023-11-18T02:37:47;76811.88;;;-145.10;100.00
56334;BME280;42240;53.626;55.886;2023-11-18T02:39:41;76839.56;;;-145.10;100.00
56334;BME280;42240;53.626;55.886;2023-11-18T02:41:34;76837.59;;;-145.10;100.00
56334;BME280;42240;53.626;55.886;2023-11-18T02:43:26;76849.47;;;-145.10;100.00
56334;BME280;42240;53.626;55.886;2023-11-18T02:45:21;76833.66;;;-145.10;100.00
56334;BME280;42240;53.626;55.886;2023-11-18T02:47:12;76833.66;;;-145.10;100.00
56334;BME280;42240;53.626;55.886;2023-11-18T02:49:07;76813.88;;;-145.10;100.00
56334;BME280;42240;53.626;55.886;2023-11-18T02:50:59;76813.88;;;-145.10;100.00
56334;BME280;42240;53.626;55.886;2023-11-18T02:52:50;76819.81;;;-145.10;100.00
56334;BME280;42240;53.626;55.886;2023-11-18T02:54:42;76813.88;;;-145.10;100.00
56334;BME280;42240;53.626;55.886;2023-11-18T02:56:33;76815.84;;;-145.10;100.00
56334;BME280;42240;53.626;55.886;2023-11-18T02:58:25;76817.81;;;-145.10;100.00
56334;BME280;42240;53.626;55.886;2023-11-18T03:00:17;76790.13;;;-145.10;100.00
56334;BME280;42240;53.626;55.886;2023-11-18T03:02:12;76817.81;;;-145.10;100.00
56334;BME280;42240;53.626;55.886;2023-11-18T03:04:05;76829.69;;;-145.10;100.00
56334;BME280;42240;53.626;55.886;2023-11-18T03:05:57;76879.13;;;-145.10;100.00
56334;BME280;42240;53.626;55.886;2023-11-18T03:07:50;76809.91;;;-145.10;100.00
56334;BME280;42240;53.626;55.886;2023-11-18T03:09:45;76807.94;;;-145.10;100.00
56334;BME280;42240;53.626;55.886;2023-11-18T03:11:38;76807.94;;;-145.10;100.00
56334;BME280;42240;53.626;55.886;2023-11-18T03:13:29;76825.72;;;-145.10;100.00
56334;BME280;42240;53.626;55.886;2023-11-18T03:15:21;76823.75;;;-145.10;100.00
56334;BME280;42240;53.626;55.886;2023-11-18T03:17:14;76823.75;;;-145.10;100.00
56334;BME280;42240;53.626;55.886;2023-11-18T03:19:06;76819.81;;;-145.10;100.00
56334;BME280;42240;53.626;55.886;2023-11-18T03:20:59;76821.78;;;-145.10;100.00
56334;BME280;42240;53.626;55.886;2023-11-18T03:22:51;76819.81;;;-145.10;100.00
56334;BME280;42240;53.626;55.886;2023-11-18T03:24:43;76794.09;;;-145.10;100.00
56334;BME280;42240;53.626;55.886;2023-11-18T03:26:35;76817.81;;;-145.10;100.00
56334;BME280;42240;53.626;55.886;2023-11-18T03:28:31;76835.63;;;-145.10;100.00
56334;BME280;42240;53.626;55.886;2023-11-18T03:30:22;76805.97;;;-145.10;100.00
56334;BME280;42240;53.626;55.886;2023-11-18T03:32:13;76807.94;;;-145.10;100.00
56334;BME280;42240;53.626;55.886;2023-11-18T03:34:05;76805.97;;;-145.10;100.00
56334;BME280;42240;53.626;55.886;2023-11-18T03:35:56;76794.09;;;-145.10;100.00
56334;BME280;42240;53.626;55.886;2023-11-18T03:37:47;76794.09;;;-145.10;100.00
56334;BME280;42240;53.626;55.886;2023-11-18T03:39:39;76825.72;;;-145.10;100.00
56334;BME280;42240;53.626;55.886;2023-11-18T03:41:31;76805.97;;;-145.10;100.00
56334;BME280;42240;53.626;55.886;2023-11-18T03:43:22;76790.13;;;-145.10;100.00
56334;BME280;42240;53.626;55.886;2023-11-18T03:45:14;76794.09;;;-145.10;100.00
56334;BME280;42240;53.626;55.886;2023-11-18T03:47:12;76837.59;;;-145.10;100.00
56334;BME280;42240;53.626;55.886;2023-11-18T03:49:05;76825.72;;;-145.10;100.00
56334;BME280;42240;53.626;55.886;2023-11-18T03:50:56;76815.84;;;-145.10;100.00
56334;BME280;42240;53.626;55.886;2023-11-18T03:52:48;76805.97;;;-145.10;100.00
56334;BME280;42240;53.626;55.886;2023-11-18T03:54:39;76798.03;;;-145.10;100.00
56334;BME280;42240;53.626;55.886;2023-11-18T03:56:30;76794.09;;;-145.10;100.00
56334;BME280;42240;53.626;55.886;2023-11-18T03:58:22;76825.72;;;-145.10;100.00
56334;BME280;42240;53.626;55.886;2023-11-18T04:00:16;76821.78;;;-145.10;100.00
56334;BME280;42240;53.626;55.886;2023-11-18T04:02:08;76823.75;;;-145.10;100.00
56334;BME280;42240;53.626;55.886;2023-11-18T04:04:02;76821.78;;;-145.10;100.00
56334;BME280;42240;53.626;55.886;2023-11-18T04:05:55;76807.94;;;-145.10;100.00
56334;BME280;42240;53.626;55.886;2023-11-18T04:07:46;76829.69;;;-145.10;100.00
56334;BME280;42240;53.626;55.886;2023-11-18T04:09:37;76827.72;;;-145.10;100.00
56334;BME280;42240;53.626;55.886;2023-11-18T04:11:31;76825.72;;;-145.10;100.00
56334;BME280;42240;53.626;55.886;2023-11-18T04:13:23;76857.38;;;-145.10;100.00
56334;BME280;42240;53.626;55.886;2023-11-18T04:15:14;76833.66;;;-145.10;100.00
56334;BME280;42240;53.626;55.886;2023-11-18T04:17:06;76849.47;;;-145.10;100.00
56334;BME280;42240;53.626;55.886;2023-11-18T04:18:58;76875.16;;;-145.10;100.00
56334;BME280;42240;53.626;55.886;2023-11-18T04:20:50;76877.16;;;-145.10;100.00
56334;BME280;42240;53.626;55.886;2023-11-18T04:22:42;76889.00;;;-145.10;100.00
56334;BME280;42240;53.626;55.886;2023-11-18T04:24:34;76861.34;;;-145.10;100.00
56334;BME280;42240;53.626;55.886;2023-11-18T04:26:26;76873.19;;;-145.10;100.00
56334;BME280;42240;53.626;55.886;2023-11-18T04:28:17;76867.25;;;-145.10;100.00
56334;BME280;42240;53.626;55.886;2023-11-18T04:30:08;76853.41;;;-145.10;100.00
56334;BME280;42240;53.626;55.886;2023-11-18T04:32:00;76908.78;;;-145.10;100.00
56334;BME280;42240;53.626;55.886;2023-11-18T04:33:53;76889.00;;;-145.10;100.00
56334;BME280;42240;53.626;55.886;2023-11-18T04:35:47;76867.25;;;-145.10;100.00
56334;BME280;42240;53.626;55.886;2023-11-18T04:37:38;76896.94;;;-145.10;100.00
56334;BME280;42240;53.626;55.886;2023-11-18T04:39:34;76910.75;;;-145.10;100.00
56334;BME280;42240;53.626;55.886;2023-11-18T04:41:26;76900.88;;;-145.10;100.00
56334;BME280;42240;53.626;55.886;2023-11-18T04:43:17;76912.75;;;-145.10;100.00
56334;BME280;42240;53.626;55.886;2023-11-18T04:45:20;76908.78;;;-145.10;100.00
56334;BME280;42240;53.626;55.886;2023-11-18T04:47:12;76940.44;;;-145.10;100.00
56334;BME280;42240;53.626;55.886;2023-11-18T04:49:04;76944.38;;;-145.10;100.00
56334;BME280;42240;53.626;55.886;2023-11-18T04:50:56;76930.53;;;-145.10;100.00
56334;BME280;42240;53.626;55.886;2023-11-18T04:52:47;76930.53;;;-145.10;100.00
56334;BME280;42240;53.626;55.886;2023-11-18T04:54:39;76968.13;;;-145.10;100.00
56334;BME280;42240;53.626;55.886;2023-11-18T04:56:31;76958.22;;;-145.10;100.00
56334;BME280;42240;53.626;55.886;2023-11-18T04:58:22;76948.34;;;-145.10;100.00
56334;BME280;42240;53.626;55.886;2023-11-18T05:00:14;76942.41;;;-145.10;100.00
56334;BME280;42240;53.626;55.886;2023-11-18T05:02:08;76908.78;;;-145.10;100.00
56334;BME280;42240;53.626;55.886;2023-11-18T05:03:59;76920.66;;;-145.10;100.00
56334;BME280;42240;53.626;55.886;2023-11-18T05:05:51;76966.13;;;-145.10;100.00
56334;BME280;42240;53.626;55.886;2023-11-18T05:07:48;76932.53;;;-145.10;100.00
56334;BME280;42240;53.626;55.886;2023-11-18T05:09:39;76956.25;;;-145.10;100.00
56334;BME280;42240;53.626;55.886;2023-11-18T05:11:31;76908.78;;;-145.10;100.00
56334;BME280;42240;53.626;55.886;2023-11-18T05:13:22;76954.28;;;-145.10;100.00
56334;BME280;42240;53.626;55.886;2023-11-18T05:15:14;76948.34;;;-145.10;100.00
56334;BME280;42240;53.626;55.886;2023-11-18T05:17:06;76948.34;;;-145.10;100.00
56334;BME280;42240;53.626;55.886;2023-11-18T05:18:58;76948.34;;;-145.10;100.00
56334;BME280;42240;53.626;55.886;2023-11-18T05:20:49;76928.56;;;-145.10;100.00
56334;BME280;42240;53.626;55.886;2023-11-18T05:22:41;76912.75;;;-145.10;100.00
56334;BME280;42240;53.626;55.886;2023-11-18T05:24:33;76976.03;;;-145.10;100.00
56334;BME280;42240;53.626;55.886;2023-11-18T05:26:24;76940.44;;;-145.10;100.00
56334;BME280;42240;53.626;55.886;2023-11-18T05:28:16;76966.13;;;-145.10;100.00
56334;BME280;42240;53.626;55.886;2023-11-18T05:30:08;76920.66;;;-145.10;100.00
56334;BME280;42240;53.626;55.886;2023-11-18T05:32:00;76956.25;;;-145.10;100.00
56334;BME280;42240;53.626;55.886;2023-11-18T05:33:51;76762.44;;;-145.10;100.00
56334;BME280;42240;53.626;55.886;2023-11-18T05:35:46;76918.69;;;-145.10;100.00
56334;BME280;42240;53.626;55.886;2023-11-18T05:37:40;76954.28;;;-145.10;100.00
56334;BME280;42240;53.626;55.886;2023-11-18T05:39:32;76948.34;;;-145.10;100.00
56334;BME280;42240;53.626;55.886;2023-11-18T05:41:25;76936.47;;;-145.10;100.00
56334;BME280;42240;53.626;55.886;2023-11-18T05:43:23;76960.22;;;-145.10;100.00
56334;BME280;42240;53.626;55.886;2023-11-18T05:45:15;76979.97;;;-145.10;100.00
56334;BME280;42240;53.626;55.886;2023-11-18T05:47:19;76997.78;;;-145.10;100.00
56334;BME280;42240;53.626;55.886;2023-11-18T05:49:10;77037.34;;;-145.10;100.00
56334;BME280;42240;53.626;55.886;2023-11-18T05:51:04;77023.50;;;-145.10;100.00
56334;BME280;42240;53.626;55.886;2023-11-18T05:52:56;76999.75;;;-145.10;100.00
56334;BME280;42240;53.626;55.886;2023-11-18T05:54:47;76999.75;;;-145.10;100.00
56334;BME280;42240;53.626;55.886;2023-11-18T05:56:39;76991.84;;;-145.10;100.00
56334;BME280;42240;53.626;55.886;2023-11-18T05:58:30;76999.75;;;-145.10;100.00
56334;BME280;42240;53.626;55.886;2023-11-18T06:00:21;76995.81;;;-145.10;100.00
56334;BME280;42240;53.626;55.886;2023-11-18T06:02:25;76991.84;;;-145.10;100.00
56334;BME280;42240;53.626;55.886;2023-11-18T06:04:17;76995.81;;;-145.10;100.00
56334;BME280;42240;53.626;55.886;2023-11-18T06:06:09;77015.56;;;-145.10;100.00
56334;BME280;42240;53.626;55.886;2023-11-18T06:08:01;76989.88;;;-145.10;100.00
56334;BME280;42240;53.626;55.886;2023-11-18T06:09:52;76999.75;;;-145.10;100.00
56334;BME280;42240;53.626;55.886;2023-11-18T06:11:44;77039.31;;;-145.10;100.00
56334;BME280;42240;53.626;55.886;2023-11-18T06:13:36;76995.81;;;-145.10;100.00
56334;BME280;42240;53.626;55.886;2023-11-18T06:15:27;77019.53;;;-145.10;100.00
56334;BME280;42240;53.626;55.886;2023-11-18T06:17:19;77051.19;;;-145.10;100.00
56334;BME280;42240;53.626;55.886;2023-11-18T06:19:10;77043.25;;;-145.10;100.00
56334;BME280;42240;53.626;55.886;2023-11-18T06:21:01;77043.25;;;-145.10;100.00
56334;BME280;42240;53.626;55.886;2023-11-18T06:22:54;77033.38;;;-145.10;100.00
56334;BME280;42240;53.626;55.886;2023-11-18T06:24:47;77047.22;;;-145.10;100.00
56334;BME280;42240;53.626;55.886;2023-11-18T06:26:39;77072.94;;;-145.10;100.00
56334;BME280;42240;53.626;55.886;2023-11-18T06:28:32;77047.22;;;-145.10;100.00
56334;BME280;42240;53.626;55.886;2023-11-18T06:30:24;77039.31;;;-145.10;100.00
56334;BME280;42240;53.626;55.886;2023-11-18T06:32:17;77102.59;;;-145.10;100.00
56334;BME280;42240;53.626;55.886;2023-11-18T06:34:08;77102.59;;;-145.10;100.00
56334;BME280;42240;53.626;55.886;2023-11-18T06:35:59;77078.88;;;-145.10;100.00
56334;BME280;42240;53.626;55.886;2023-11-18T06:37:51;77070.94;;;-145.10;100.00
56334;BME280;42240;53.626;55.886;2023-11-18T06:39:43;77070.94;;;-145.10;100.00
56334;BME280;42240;53.626;55.886;2023-11-18T06:41:38;77055.13;;;-145.10;100.00
56334;BME280;42240;53.626;55.886;2023-11-18T06:43:40;77076.88;;;-145.10;100.00
56334;BME280;42240;53.626;55.886;2023-11-18T06:45:52;77096.66;;;-145.10;100.00
56334;BME280;42240;53.626;55.886;2023-11-18T06:47:44;77102.59;;;-145.10;100.00
56334;BME280;42240;53.626;55.886;2023-11-18T06:49:36;77118.41;;;-145.10;100.00
56334;BME280;42240;53.626;55.886;2023-11-18T06:51:30;77082.81;;;-145.10;100.00
56334;BME280;42240;53.626;55.886;2023-11-18T06:53:23;77116.44;;;-145.10;100.00
56334;BME280;42240;53.626;55.886;2023-11-18T06:55:15;77090.72;;;-145.10;100.00
56334;BME280;42240;53.626;55.886;2023-11-18T06:57:07;77106.56;;;-145.10;100.00
56334;BME280;42240;53.626;55.886;2023-11-18T06:58:59;77142.16;;;-145.10;100.00
56334;BME280;42240;53.626;55.886;2023-11-18T07:00:50;77148.09;;;-145.10;100.00
56334;BME280;42240;53.626;55.886;2023-11-18T07:02:42;77173.78;;;-145.10;100.00
56334;BME280;42240;53.626;55.886;2023-11-18T07:04:33;77173.78;;;-145.10;100.00
56334;BME280;42240;53.626;55.886;2023-11-18T07:06:26;77181.69;;;-145.10;100.00
56334;BME280;42240;53.626;55.886;2023-11-18T07:08:18;77217.31;;;-145.10;100.00
56334;BME280;42240;53.626;55.886;2023-11-18T07:10:09;77219.28;;;-145.10;100.00
56334;BME280;42240;53.626;55.886;2023-11-18T07:12:04;77213.34;;;-145.10;100.00
56334;BME280;42240;53.626;55.886;2023-11-18T07:13:57;77169.84;;;-145.10;100.00
56334;BME280;42240;53.626;55.886;2023-11-18T07:15:50;77169.84;;;-145.10;100.00
56334;BME280;42240;53.626;55.886;2023-11-18T07:17:42;77165.88;;;-145.10;100.00
56334;BME280;42240;53.626;55.886;2023-11-18T07:19:34;77152.03;;;-145.10;100.00
56334;BME280;42240;53.626;55.886;2023-11-18T07:21:25;77173.78;;;-145.10;100.00
56334;BME280;42240;53.626;55.886;2023-11-18T07:23:20;77171.81;;;-145.10;100.00
56334;BME280;42240;53.626;55.886;2023-11-18T07:25:12;77195.53;;;-145.10;100.00
56334;BME280;42240;53.626;55.886;2023-11-18T07:27:05;77209.38;;;-145.10;100.00
56334;BME280;42240;53.626;55.886;2023-11-18T07:28:58;77223.22;;;-145.10;100.00
56334;BME280;42240;53.626;55.886;2023-11-18T07:30:50;77207.41;;;-145.10;100.00
56334;BME280;42240;53.626;55.886;2023-11-18T07:32:42;77191.59;;;-145.10;100.00
56334;BME280;42240;53.626;55.886;2023-11-18T07:34:35;77225.22;;;-145.10;100.00
56334;BME280;42240;53.626;55.886;2023-11-18T07:36:27;77213.34;;;-145.10;100.00
56334;BME280;42240;53.626;55.886;2023-11-18T07:38:19;77173.78;;;-145.10;100.00
56334;BME280;42240;53.626;55.886;2023-11-18T07:40:13;77189.59;;;-145.10;100.00
56334;BME280;42240;53.626;55.886;2023-11-18T07:42:21;77233.13;;;-145.10;100.00
56334;BME280;42240;53.626;55.886;2023-11-18T07:44:13;77213.34;;;-145.10;100.00
56334;BME280;42240;53.626;55.886;2023-11-18T07:46:07;77237.06;;;-145.10;100.00
56334;BME280;42240;53.626;55.886;2023-11-18T07:47:58;77221.25;;;-145.10;100.00
56334;BME280;42240;53.626;55.886;2023-11-18T07:49:53;77231.16;;;-145.10;100.00
56334;BME280;42240;53.626;55.886;2023-11-18T07:51:44;77264.75;;;-145.10;100.00
56334;BME280;42240;53.626;55.886;2023-11-18T07:53:37;77243.00;;;-145.10;100.00
56334;BME280;42240;53.626;55.886;2023-11-18T07:55:32;77241.03;;;-145.10;100.00
56334;BME280;42240;53.626;55.886;2023-11-18T07:57:31;77239.06;;;-145.10;100.00
56334;BME280;42240;53.626;55.886;2023-11-18T07:59:30;77221.25;;;-145.10;100.00
56334;BME280;42240;53.626;55.886;2023-11-18T08:01:26;77231.16;;;-145.10;100.00
56334;BME280;42240;53.626;55.886;2023-11-18T08:03:18;77241.03;;;-145.10;100.00
56334;BME280;42240;53.626;55.886;2023-11-18T08:05:11;77286.53;;;-145.10;100.00
56334;BME280;42240;53.626;55.886;2023-11-18T08:07:06;77252.91;;;-145.10;100.00
56334;BME280;42240;53.626;55.886;2023-11-18T08:08:59;77241.03;;;-145.10;100.00
56334;BME280;42240;53.626;55.886;2023-11-18T08:10:51;77274.66;;;-145.10;100.00
56334;BME280;42240;53.626;55.886;2023-11-18T08:12:42;77260.81;;;-145.10;100.00
56334;BME280;42240;53.626;55.886;2023-11-18T08:14:37;77248.94;;;-145.10;100.00
56334;BME280;42240;53.626;55.886;2023-11-18T08:16:29;77252.91;;;-145.10;100.00
56334;BME280;42240;53.626;55.886;2023-11-18T08:18:21;77201.47;;;-145.10;100.00
56334;BME280;42240;53.626;55.886;2023-11-18T08:20:16;77248.94;;;-145.10;100.00
56334;BME280;42240;53.626;55.886;2023-11-18T08:22:07;77201.47;;;-145.10;100.00
56334;BME280;42240;53.626;55.886;2023-11-18T08:24:00;77221.25;;;-145.10;100.00
56334;BME280;42240;53.626;55.886;2023-11-18T08:25:52;77231.16;;;-145.10;100.00
56334;BME280;42240;53.626;55.886;2023-11-18T08:27:44;77229.16;;;-145.10;100.00
56334;BME280;42240;53.626;55.886;2023-11-18T08:29:38;77274.66;;;-145.10;100.00
56334;BME280;42240;53.626;55.886;2023-11-18T08:31:29;77225.22;;;-145.10;100.00
56334;BME280;42240;53.626;55.886;2023-11-18T08:33:21;77185.66;;;-145.10;100.00
56334;BME280;42240;53.626;55.886;2023-11-18T08:35:15;77252.91;;;-145.10;100.00
56334;BME280;42240;53.626;55.886;2023-11-18T08:37:07;77213.34;;;-145.10;100.00
56334;BME280;42240;53.626;55.886;2023-11-18T08:38:59;77217.31;;;-145.10;100.00
56334;BME280;42240;53.626;55.886;2023-11-18T08:40:51;77213.34;;;-145.10;100.00
56334;BME280;42240;53.626;55.886;2023-11-18T08:42:43;77221.25;;;-145.10;100.00
56334;BME280;42240;53.626;55.886;2023-11-18T08:44:42;77150.06;;;-145.10;100.00
56334;BME280;42240;53.626;55.886;2023-11-18T08:46:35;77142.16;;;-145.10;100.00
56334;BME280;42240;53.626;55.886;2023-11-18T08:48:28;77223.22;;;-145.10;100.00
56334;BME280;42240;53.626;55.886;2023-11-18T08:50:20;77233.13;;;-145.10;100.00
56334;BME280;42240;53.626;55.886;2023-11-18T08:52:15;77231.16;;;-145.10;100.00
56334;BME280;42240;53.626;55.886;2023-11-18T08:54:11;77229.16;;;-145.10;100.00
56334;BME280;42240;53.626;55.886;2023-11-18T08:56:23;77245.00;;;-145.10;100.00
56334;BME280;42240;53.626;55.886;2023-11-18T08:58:25;77264.75;;;-145.10;100.00
56334;BME280;42240;53.626;55.886;2023-11-18T09:00:28;77254.88;;;-145.10;100.00
56334;BME280;42240;53.626;55.886;2023-11-18T09:02:37;77320.13;;;-145.10;100.00
56334;BME280;42240;53.626;55.886;2023-11-18T09:04:43;77280.59;;;-145.10;100.00
56334;BME280;42240;53.626;55.886;2023-11-18T09:06:35;77288.50;;;-145.10;100.00
56334;BME280;42240;53.626;55.886;2023-11-18T09:10:26;77276.63;;;-145.10;100.00
56334;BME280;42240;53.626;55.886;2023-11-18T09:12:19;77280.59;;;-145.10;100.00
56334;BME280;42240;53.626;55.886;2023-11-18T09:14:10;77355.75;;;-145.10;100.00
56334;BME280;42240;53.626;55.886;2023-11-18T09:16:05;77290.47;;;-145.10;100.00
56334;BME280;42240;53.626;55.886;2023-11-18T09:18:00;77320.13;;;-145.10;100.00
56334;BME280;42240;53.626;55.886;2023-11-18T09:19:54;77328.06;;;-145.10;100.00
56334;BME280;42240;53.626;55.886;2023-11-18T09:21:49;77330.03;;;-145.10;100.00
56334;BME280;42240;53.626;55.886;2023-11-18T09:23:46;77322.13;;;-145.10;100.00
56334;BME280;42240;53.626;55.886;2023-11-18T09:25:40;77332.00;;;-145.10;100.00
56334;BME280;42240;53.626;55.886;2023-11-18T09:27:37;77359.69;;;-145.10;100.00
56334;BME280;42240;53.626;55.886;2023-11-18T09:29:31;77337.94;;;-145.10;100.00
56334;BME280;42240;53.626;55.886;2023-11-18T09:31:24;77353.75;;;-145.10;100.00
56334;BME280;42240;53.626;55.886;2023-11-18T09:33:17;77349.81;;;-145.10;100.00